Rechercher aéroport 
image banner adimage banner ad
image banner ad

DABS - Tebessa / Cheikh Larbi Tebessi

Situé à Tebessa, Algeria

ICAO - DABS, IATA - TEE

Données fournies par Airmate  

Information générale

Coordonnées: N35°25'57" E8°7'32"
Élévation : 2657 feet MSL.
 
Évalué:
Voir évaluations:
[VIEW]
Voir autres Aéroports à Tébessa Province

Données opérationnelles

Accessible au public
Heure actuelle UTC:
Heure actuelle locale:
Météo
METAR: DABS 230600Z 34002KT 9999 FEW040 BKN233 16/13 Q1018
TAF: TAF DABS 230500Z 2306/2406 21008KT 9999 FEW30 SCT200 PROB30 TEMPO 2306/2310 5000 -TSRA FEW023CB TEMPO 2312/2322 27013KT FEW026CB PROB40 TEMPO 2314/2321 5000 -TSRA
Voir NOTAMs / SUP AIP / TFR affectant cet aéroport [VIEW]
Fréquences de communication: [VIEW]

Pistes:

Identifiant RWYQFULongueur (ft)Largeur (ft)SurfaceLDA (ft)
11113°9843148ASP
29293°9843148
12124°787498
30304°787498

Coordonnées de l'aéroport

Adresse: Tebessa Algeria

Vue satellite de DABS